Time;durP1;ratioP1;P1;durP2;ratioP2;P2;SDS_P1;SDS_P2;PMS_P1;PMS_P2;Temp;Humidity;BMP_temperature;BMP_pressure;BME280_temperature;BME280_humidity;BME280_pressure;Samples;Min_cycle;Max_cycle;Signal;HPM_P1;HPM_P2
2023/08/04 00:01:22;;;;;;;6.35;2.00;;;20.10;99.90;;;;;;5082446;28;20044;-80
2023/08/04 00:03:47;;;;;;;7.45;2.35;;;20.20;99.90;;;;;;5066232;28;20025;-79
2023/08/04 00:06:13;;;;;;;7.13;2.30;;;19.70;99.90;;;;;;5082483;28;20036;-79
2023/08/04 00:08:39;;;;;;;8.43;2.10;;;20.10;99.90;;;;;;5061461;28;20322;-81
2023/08/04 00:11:04;;;;;;;7.50;2.20;;;20.00;99.90;;;;;;5030723;28;20041;-81
2023/08/04 00:13:31;;;;;;;5.50;2.22;;;20.10;99.90;;;;;;5029385;28;20025;-79
2023/08/04 00:16:07;;;;;;;7.22;2.30;;;19.70;99.90;;;;;;5045976;28;20103;-80
2023/08/04 00:18:33;;;;;;;5.35;2.47;;;20.00;99.90;;;;;;5045813;28;20056;-79
2023/08/04 00:20:59;;;;;;;7.80;2.65;;;19.90;99.90;;;;;;5062408;28;20052;-79
2023/08/04 00:23:25;;;;;;;9.13;2.67;;;19.70;99.90;;;;;;5045567;28;20096;-80
2023/08/04 00:25:51;;;;;;;4.88;1.80;;;19.90;99.90;;;;;;5050560;28;20021;-79
2023/08/04 00:28:16;;;;;;;6.53;2.10;;;20.00;99.90;;;;;;5048269;28;20103;-79
2023/08/04 00:30:42;;;;;;;6.90;2.58;;;19.60;99.90;;;;;;5082276;28;20040;-79
2023/08/04 00:33:09;;;;;;;5.18;2.75;;;19.60;99.90;;;;;;5065056;28;20111;-80
2023/08/04 00:35:35;;;;;;;7.15;2.28;;;19.60;99.90;;;;;;5082077;28;20036;-80
2023/08/04 00:38:01;;;;;;;6.80;2.22;;;20.00;99.90;;;;;;5048512;28;20040;-79
2023/08/04 00:40:29;;;;;;;4.68;1.95;;;20.00;99.90;;;;;;5048296;28;20080;-79
2023/08/04 00:42:54;;;;;;;3.75;2.05;;;19.60;99.90;;;;;;5077416;28;20036;-82
2023/08/04 00:45:23;;;;;;;5.95;2.40;;;19.50;99.90;;;;;;5064761;28;20024;-79
2023/08/04 00:47:49;;;;;;;2.90;1.70;;;19.90;99.90;;;;;;5064979;28;20074;-80
2023/08/04 00:50:15;;;;;;;4.55;2.05;;;19.50;99.90;;;;;;5081483;28;20028;-80
2023/08/04 00:52:41;;;;;;;5.32;2.50;;;19.70;99.90;;;;;;5065250;28;20349;-79
2023/08/04 00:55:08;;;;;;;7.68;2.35;;;19.90;99.90;;;;;;5048089;28;20053;-81
2023/08/04 00:57:37;;;;;;;4.72;2.17;;;19.80;99.90;;;;;;5065288;28;20120;-79
2023/08/04 01:00:03;;;;;;;5.55;2.53;;;19.80;99.90;;;;;;5078837;28;20375;-79
2023/08/04 01:02:29;;;;;;;3.47;1.95;;;19.50;99.90;;;;;;5046035;28;20112;-81
2023/08/04 01:04:55;;;;;;;3.10;2.03;;;19.40;99.90;;;;;;5061478;28;20029;-81
2023/08/04 01:07:26;;;;;;;5.15;2.03;;;19.40;99.90;;;;;;5044698;28;20041;-80
2023/08/04 01:10:17;;;;;;;4.25;2.38;;;19.40;99.90;;;;;;5045148;28;20035;-80
2023/08/04 01:12:47;;;;;;;8.00;2.05;;;19.60;99.90;;;;;;5017488;28;20037;-81
2023/08/04 01:15:15;;;;;;;4.75;2.35;;;19.20;99.90;;;;;;5044360;28;20028;-81
2023/08/04 01:17:41;;;;;;;5.40;2.50;;;19.20;99.90;;;;;;5064029;28;20043;-80
2023/08/04 01:20:07;;;;;;;10.32;2.90;;;19.30;99.90;;;;;;5044595;28;20100;-82
2023/08/04 01:22:36;;;;;;;6.22;2.50;;;19.30;99.90;;;;;;5028424;28;20360;-80
2023/08/04 01:25:02;;;;;;;6.22;2.30;;;19.60;99.90;;;;;;5044663;28;20029;-79
2023/08/04 01:27:37;;;;;;;7.43;2.53;;;19.50;99.90;;;;;;5044280;28;20059;-80
2023/08/04 01:30:04;;;;;;;;;;;19.50;99.90;;;;;;5045167;28;20056;-81
2023/08/04 01:32:30;;;;;;;5.10;2.20;;;19.60;99.90;;;;;;5060822;28;20119;-79
2023/08/04 01:34:57;;;;;;;5.03;2.20;;;19.40;99.90;;;;;;5061209;28;20051;-82
2023/08/04 01:37:22;;;;;;;7.30;2.42;;;19.20;99.90;;;;;;5072899;28;20043;-80
2023/08/04 01:39:48;;;;;;;5.57;2.58;;;19.50;99.90;;;;;;5080804;28;20028;-80
2023/08/04 01:42:14;;;;;;;6.80;2.00;;;19.20;99.90;;;;;;5047072;28;20127;-80
2023/08/04 01:44:39;;;;;;;5.97;2.05;;;19.60;99.90;;;;;;5064340;28;20020;-80
2023/08/04 01:47:07;;;;;;;6.70;2.05;;;19.50;99.90;;;;;;5031210;28;20078;-80
2023/08/04 01:49:33;;;;;;;8.63;2.55;;;19.70;99.90;;;;;;5080331;28;20394;-80
2023/08/04 01:51:59;;;;;;;6.28;2.00;;;19.50;99.90;;;;;;5043874;28;20098;-79
2023/08/04 01:54:24;;;;;;;6.72;2.00;;;19.30;99.90;;;;;;5064039;28;20223;-80
2023/08/04 01:56:51;;;;;;;5.03;2.00;;;19.40;99.90;;;;;;5070663;28;20043;-80
2023/08/04 01:59:16;;;;;;;5.68;2.10;;;19.30;99.90;;;;;;5086891;28;20050;-80
2023/08/04 02:01:42;;;;;;;5.00;2.15;;;19.30;99.90;;;;;;5087432;28;20264;-81
2023/08/04 02:04:08;;;;;;;5.47;2.63;;;19.60;99.90;;;;;;5087295;28;20043;-78
2023/08/04 02:06:33;;;;;;;5.80;2.13;;;19.70;99.90;;;;;;5070346;28;20102;-79
2023/08/04 02:08:59;;;;;;;6.25;1.73;;;19.40;99.90;;;;;;5100836;28;20068;-79
2023/08/04 02:11:24;;;;;;;4.97;1.90;;;19.70;99.90;;;;;;5086271;28;20039;-80
2023/08/04 02:13:50;;;;;;;3.95;2.35;;;19.20;99.90;;;;;;5087050;28;20028;-81
2023/08/04 02:16:16;;;;;;;3.65;2.00;;;19.50;99.90;;;;;;5103609;28;20027;-81
2023/08/04 02:18:41;;;;;;;3.90;1.75;;;19.60;99.90;;;;;;5087217;28;20032;-81
2023/08/04 02:21:07;;;;;;;4.80;2.08;;;19.20;99.90;;;;;;5104085;28;20094;-80
2023/08/04 02:23:33;;;;;;;5.55;1.90;;;19.30;99.90;;;;;;5070257;28;20043;-79
2023/08/04 02:25:58;;;;;;;4.40;1.98;;;19.40;99.90;;;;;;5101354;28;20060;-80
2023/08/04 02:28:24;;;;;;;4.85;1.77;;;19.70;99.90;;;;;;5103363;28;20030;-80
2023/08/04 02:30:50;;;;;;;6.15;1.80;;;19.40;99.90;;;;;;5087033;28;20043;-79
2023/08/04 02:33:15;;;;;;;5.65;1.90;;;19.30;99.90;;;;;;5087016;28;20028;-81
2023/08/04 02:35:41;;;;;;;4.57;2.03;;;19.40;99.90;;;;;;5086760;28;20035;-81
2023/08/04 02:38:07;;;;;;;6.15;2.03;;;19.30;99.90;;;;;;5103181;28;20047;-80
2023/08/04 02:40:39;;;;;;;5.90;1.98;;;19.70;99.90;;;;;;5069193;28;20054;-82
2023/08/04 02:43:04;;;;;;;5.28;2.13;;;19.60;99.90;;;;;;5097909;28;20103;-80
2023/08/04 02:45:30;;;;;;;4.63;1.80;;;19.30;99.90;;;;;;5069302;28;20027;-79
2023/08/04 02:47:56;;;;;;;3.67;1.83;;;19.40;99.90;;;;;;5103609;28;20358;-79
2023/08/04 02:50:21;;;;;;;3.70;2.15;;;19.40;99.90;;;;;;5052970;28;20032;-79
2023/08/04 02:52:47;;;;;;;6.57;2.10;;;19.80;99.90;;;;;;5069750;28;20080;-79
2023/08/04 02:55:13;;;;;;;5.35;2.28;;;19.60;99.90;;;;;;5085809;28;20055;-78
2023/08/04 02:57:38;;;;;;;5.40;2.03;;;19.40;99.90;;;;;;5068845;28;20250;-80
2023/08/04 03:00:07;;;;;;;5.18;1.80;;;19.30;99.90;;;;;;5052556;28;20230;-79
2023/08/04 03:02:32;;;;;;;3.50;1.90;;;19.10;99.90;;;;;;5069751;28;20094;-78
2023/08/04 03:04:58;;;;;;;4.15;1.90;;;19.60;99.90;;;;;;5089877;28;20363;-80
2023/08/04 03:07:24;;;;;;;11.32;2.67;;;19.20;99.90;;;;;;5106431;28;20452;-78
2023/08/04 03:09:50;;;;;;;3.72;1.88;;;19.60;99.90;;;;;;5089880;28;20306;-80
2023/08/04 03:12:15;;;;;;;4.80;2.30;;;19.60;99.90;;;;;;5073235;28;20035;-79
2023/08/04 03:14:41;;;;;;;5.53;1.85;;;19.30;99.90;;;;;;5089537;28;20065;-79
2023/08/04 03:17:07;;;;;;;8.98;2.22;;;19.20;99.90;;;;;;5054858;28;20028;-80
2023/08/04 03:19:32;;;;;;;3.63;2.17;;;19.30;99.90;;;;;;5102138;28;20325;-79
2023/08/04 03:21:58;;;;;;;6.05;2.30;;;19.00;99.90;;;;;;5089661;28;20206;-79
2023/08/04 03:24:23;;;;;;;4.10;2.33;;;19.30;99.90;;;;;;5106766;28;20054;-80
2023/08/04 03:26:49;;;;;;;5.63;2.00;;;18.90;99.90;;;;;;5090021;28;20031;-80
2023/08/04 03:29:15;;;;;;;4.60;2.10;;;19.10;99.90;;;;;;5107017;28;20314;-79
2023/08/04 03:31:40;;;;;;;6.63;2.17;;;19.00;99.90;;;;;;5089437;28;20350;-80
2023/08/04 03:34:06;;;;;;;3.83;1.73;;;18.90;99.90;;;;;;5102617;28;20035;-79
2023/08/04 03:36:32;;;;;;;5.75;1.63;;;18.80;99.90;;;;;;5079919;28;20036;-78
2023/08/04 03:38:58;;;;;;;4.97;1.88;;;18.70;99.90;;;;;;5089767;28;20118;-80
2023/08/04 03:41:23;;;;;;;4.38;1.90;;;19.20;99.90;;;;;;5072812;28;20281;-79
2023/08/04 03:43:49;;;;;;;4.68;1.90;;;19.10;99.90;;;;;;5106562;28;20213;-80
2023/08/04 03:46:15;;;;;;;10.00;2.20;;;18.70;99.90;;;;;;5106897;28;20042;-82
2023/08/04 03:48:40;;;;;;;3.22;1.60;;;19.10;99.90;;;;;;5080874;28;20040;-81
2023/08/04 03:51:06;;;;;;;4.18;1.90;;;18.90;99.90;;;;;;5086350;28;20032;-81
2023/08/04 03:53:32;;;;;;;6.00;2.20;;;18.70;99.90;;;;;;5069306;28;20032;-80
2023/08/04 03:55:58;;;;;;;2.35;1.58;;;18.80;99.90;;;;;;5052610;28;20055;-80
2023/08/04 03:58:23;;;;;;;3.08;1.80;;;18.90;99.90;;;;;;5085482;28;20067;-81
2023/08/04 04:00:49;;;;;;;4.40;1.92;;;19.00;99.90;;;;;;5035824;28;20039;-79
2023/08/04 04:03:15;;;;;;;4.18;1.70;;;18.70;99.90;;;;;;5052349;28;20036;-80
2023/08/04 04:05:40;;;;;;;5.47;2.13;;;18.70;99.90;;;;;;5068185;28;20024;-80
2023/08/04 04:08:06;;;;;;;3.85;2.15;;;18.80;99.90;;;;;;5070197;28;20034;-78
2023/08/04 04:10:32;;;;;;;5.28;2.05;;;19.20;99.90;;;;;;5071760;28;20076;-81
2023/08/04 04:12:57;;;;;;;6.63;2.20;;;18.70;99.90;;;;;;5055222;28;20368;-79
2023/08/04 04:15:23;;;;;;;5.32;2.78;;;19.20;99.90;;;;;;5072133;28;20035;-78
2023/08/04 04:17:49;;;;;;;4.90;2.20;;;19.20;99.90;;;;;;5105726;28;20501;-79
2023/08/04 04:20:14;;;;;;;6.72;2.25;;;19.40;99.90;;;;;;5072055;28;20023;-80
2023/08/04 04:22:40;;;;;;;4.18;2.17;;;18.90;99.90;;;;;;5088474;28;20104;-80
2023/08/04 04:25:06;;;;;;;2.17;1.75;;;18.80;99.90;;;;;;5070684;28;20370;-77
2023/08/04 04:27:32;;;;;;;2.45;1.70;;;18.80;99.90;;;;;;5088234;28;20049;-79
2023/08/04 04:29:57;;;;;;;4.45;1.80;;;18.90;99.90;;;;;;5088817;28;20055;-77
2023/08/04 04:32:23;;;;;;;3.78;2.38;;;18.60;99.90;;;;;;5088693;28;20034;-79
2023/08/04 04:34:50;;;;;;;5.07;2.20;;;18.50;99.90;;;;;;5104833;28;20039;-78
2023/08/04 04:37:16;;;;;;;2.78;2.03;;;18.90;99.90;;;;;;5080157;28;20204;-78
2023/08/04 04:39:41;;;;;;;5.43;2.50;;;18.80;99.90;;;;;;5051096;28;20032;-79
2023/08/04 04:42:07;;;;;;;2.67;1.77;;;18.80;99.90;;;;;;5051665;28;20032;-78
2023/08/04 04:44:33;;;;;;;3.15;1.88;;;18.40;99.90;;;;;;5067823;28;20036;-79
2023/08/04 04:46:58;;;;;;;3.08;2.08;;;18.90;99.90;;;;;;5051796;28;20132;-80
2023/08/04 04:49:24;;;;;;;2.13;1.83;;;18.80;99.90;;;;;;5068513;28;20066;-78
2023/08/04 04:51:53;;;;;;;5.28;2.10;;;18.50;99.90;;;;;;5067776;28;20056;-81
2023/08/04 04:54:19;;;;;;;3.28;2.03;;;19.10;99.90;;;;;;5071273;28;20074;-80
2023/08/04 04:56:45;;;;;;;6.60;2.22;;;19.20;99.90;;;;;;5064509;28;20052;-78
2023/08/04 04:59:11;;;;;;;2.95;2.10;;;19.20;99.90;;;;;;5081241;28;20040;-79
2023/08/04 05:01:37;;;;;;;4.72;2.15;;;19.00;99.90;;;;;;5064209;28;20311;-79
2023/08/04 05:04:03;;;;;;;5.72;2.13;;;19.30;99.90;;;;;;5031734;28;20036;-80
2023/08/04 05:06:28;;;;;;;2.47;2.15;;;18.80;99.90;;;;;;5064270;28;20266;-80
2023/08/04 05:08:54;;;;;;;2.88;2.00;;;18.90;99.90;;;;;;5048204;28;20060;-76
2023/08/04 05:11:19;;;;;;;2.70;2.10;;;19.30;99.90;;;;;;5041265;28;20063;-78
2023/08/04 05:13:46;;;;;;;3.20;2.25;;;19.50;99.90;;;;;;5060628;28;20047;-79
2023/08/04 05:16:11;;;;;;;2.42;1.98;;;19.00;99.90;;;;;;5044625;28;20354;-80
2023/08/04 05:18:37;;;;;;;3.97;2.20;;;19.60;99.90;;;;;;5027494;28;20025;-79
2023/08/04 05:21:03;;;;;;;3.65;1.90;;;19.00;99.90;;;;;;5044946;28;20315;-79
2023/08/04 05:23:29;;;;;;;2.35;2.15;;;19.40;99.90;;;;;;5036086;28;20056;-78
2023/08/04 05:25:54;;;;;;;4.60;2.10;;;19.30;99.90;;;;;;5063162;28;20494;-78
2023/08/04 05:28:28;;;;;;;2.60;2.25;;;19.20;99.90;;;;;;5073765;28;20043;-79
2023/08/04 05:31:02;;;;;;;4.68;2.40;;;19.80;99.90;;;;;;5062184;28;20349;-77
2023/08/04 05:33:29;;;;;;;3.20;2.30;;;19.60;99.90;;;;;;5080352;28;20037;-79
2023/08/04 05:35:54;;;;;;;3.38;2.10;;;19.90;99.90;;;;;;5079373;28;20044;-79
2023/08/04 05:38:20;;;;;;;5.40;2.60;;;20.00;99.90;;;;;;5062598;28;20039;-78
2023/08/04 05:40:47;;;;;;;5.38;2.72;;;19.80;99.90;;;;;;5046500;28;20100;-79
2023/08/04 05:43:13;;;;;;;3.13;2.40;;;19.50;99.90;;;;;;5026990;28;20036;-79
2023/08/04 05:45:44;;;;;;;6.43;2.90;;;19.50;99.90;;;;;;5072037;28;20048;-79
2023/08/04 05:48:11;;;;;;;4.57;2.88;;;20.00;99.90;;;;;;5079295;28;20036;-79
2023/08/04 05:50:36;;;;;;;4.95;2.97;;;19.90;99.90;;;;;;5062828;28;20111;-78
2023/08/04 05:53:02;;;;;;;4.05;2.80;;;20.00;99.90;;;;;;5080038;28;20040;-78
2023/08/04 05:55:28;;;;;;;3.47;2.78;;;20.10;99.90;;;;;;5058220;28;20067;-78
2023/08/04 05:57:55;;;;;;;4.22;3.10;;;19.70;99.90;;;;;;5026085;28;20279;-79
2023/08/04 06:00:22;;;;;;;5.63;2.47;;;19.70;99.90;;;;;;5025706;28;20029;-79
2023/08/04 06:02:47;;;;;;;3.92;2.70;;;19.90;99.90;;;;;;5071215;28;20096;-79
2023/08/04 06:05:13;;;;;;;4.93;3.13;;;19.80;99.90;;;;;;5028929;28;20035;-79
2023/08/04 06:07:42;;;;;;;4.93;3.78;;;19.80;99.90;;;;;;5045559;28;20099;-79
2023/08/04 06:10:08;;;;;;;7.50;3.20;;;20.10;99.90;;;;;;5078678;28;20350;-78
2023/08/04 06:12:35;;;;;;;6.68;2.50;;;20.30;99.90;;;;;;5061750;28;20249;-78
2023/08/04 06:15:01;;;;;;;4.25;2.80;;;20.50;99.90;;;;;;5062058;28;20384;-79
2023/08/04 06:17:27;;;;;;;3.95;2.95;;;20.20;99.90;;;;;;5074363;28;20219;-79
2023/08/04 06:19:52;;;;;;;4.40;2.80;;;20.60;99.90;;;;;;5061051;28;20048;-78
2023/08/04 06:22:18;;;;;;;5.93;2.30;;;20.10;99.90;;;;;;5061848;28;20028;-78
2023/08/04 06:24:43;;;;;;;5.28;2.17;;;20.10;99.90;;;;;;5045011;28;20097;-79
2023/08/04 06:27:09;;;;;;;3.65;2.47;;;20.60;99.90;;;;;;5045372;28;20096;-79
2023/08/04 06:29:35;;;;;;;4.72;2.65;;;20.80;99.90;;;;;;5044854;28;20101;-79
2023/08/04 06:32:01;;;;;;;4.82;2.60;;;20.20;99.90;;;;;;5078554;28;20052;-78
2023/08/04 06:34:27;;;;;;;5.88;2.72;;;20.90;99.90;;;;;;5061799;28;20041;-79
2023/08/04 06:36:53;;;;;;;4.00;2.72;;;20.60;99.90;;;;;;5058198;28;20063;-79
2023/08/04 06:39:19;;;;;;;5.55;2.17;;;20.70;99.90;;;;;;5044752;28;20327;-79
2023/08/04 06:41:44;;;;;;;4.68;2.17;;;20.70;99.90;;;;;;5044549;28;20047;-80
2023/08/04 06:44:13;;;;;;;2.80;1.92;;;20.80;99.90;;;;;;5061683;28;20258;-79
2023/08/04 06:46:38;;;;;;;7.30;2.55;;;20.50;99.90;;;;;;5078228;28;20087;-79
2023/08/04 06:49:04;;;;;;;4.88;2.10;;;21.10;99.90;;;;;;5078380;28;20099;-79
2023/08/04 06:51:30;;;;;;;3.00;2.45;;;20.90;99.90;;;;;;5045028;28;20219;-79
2023/08/04 06:53:55;;;;;;;3.42;1.98;;;21.00;99.90;;;;;;5056043;28;20044;-79
2023/08/04 06:56:22;;;;;;;7.03;1.90;;;20.90;99.90;;;;;;5042308;28;20082;-79
2023/08/04 06:58:47;;;;;;;5.30;2.25;;;20.70;99.90;;;;;;5061063;28;20040;-79
2023/08/04 07:01:14;;;;;;;2.80;1.80;;;20.90;99.90;;;;;;5078249;28;20032;-79
2023/08/04 07:03:40;;;;;;;8.10;2.08;;;20.70;99.90;;;;;;5061319;28;20064;-79
2023/08/04 07:06:06;;;;;;;3.83;2.20;;;20.90;99.90;;;;;;5078315;28;20032;-79
2023/08/04 07:08:31;;;;;;;5.30;2.00;;;21.00;99.90;;;;;;5044853;28;20315;-79
2023/08/04 07:10:57;;;;;;;9.00;2.55;;;21.20;99.90;;;;;;5060114;28;20102;-79
2023/08/04 07:13:23;;;;;;;7.53;2.45;;;21.10;99.90;;;;;;5047438;28;20219;-79
2023/08/04 07:15:55;;;;;;;5.10;2.28;;;21.40;99.90;;;;;;5081351;28;20031;-79
2023/08/04 07:18:21;;;;;;;3.00;1.90;;;21.00;99.90;;;;;;5081295;28;20320;-79
2023/08/04 07:20:47;;;;;;;5.18;2.60;;;21.60;99.90;;;;;;5097801;28;20032;-79
2023/08/04 07:23:12;;;;;;;3.75;2.15;;;21.20;99.90;;;;;;5081595;28;20216;-79
2023/08/04 07:25:38;;;;;;;5.13;2.25;;;21.90;99.90;;;;;;5098667;28;20290;-79
2023/08/04 07:28:04;;;;;;;7.43;2.47;;;21.50;99.90;;;;;;5064833;28;20032;-79
2023/08/04 07:30:30;;;;;;;5.47;2.40;;;21.60;99.90;;;;;;5079724;28;20089;-79
2023/08/04 07:32:55;;;;;;;2.92;2.25;;;21.60;99.90;;;;;;5047438;28;20040;-79
2023/08/04 07:35:21;;;;;;;3.97;2.35;;;21.80;99.90;;;;;;5064839;28;20028;-79
2023/08/04 07:37:47;;;;;;;6.72;2.28;;;21.40;99.90;;;;;;5064277;28;20299;-79
2023/08/04 07:40:13;;;;;;;3.53;2.28;;;21.70;99.90;;;;;;5098161;28;20028;-80
2023/08/04 07:42:39;;;;;;;4.53;2.45;;;21.70;99.90;;;;;;5098040;28;20028;-79
2023/08/04 07:45:05;;;;;;;3.83;2.35;;;21.50;99.90;;;;;;5097819;28;20384;-79
2023/08/04 07:47:31;;;;;;;4.15;2.25;;;21.70;99.90;;;;;;5062260;28;20040;-79
2023/08/04 07:49:56;;;;;;;2.85;2.20;;;21.40;99.90;;;;;;5082629;28;20020;-79
2023/08/04 07:52:22;;;;;;;6.10;2.05;;;21.40;99.90;;;;;;5084741;28;20103;-79
2023/08/04 07:54:48;;;;;;;4.32;1.63;;;21.40;99.90;;;;;;5080738;28;20194;-81
2023/08/04 07:57:13;;;;;;;5.63;2.05;;;21.40;99.90;;;;;;5048223;28;20035;-79
2023/08/04 07:59:39;;;;;;;4.95;1.70;;;21.00;99.90;;;;;;5081188;28;20315;-79
2023/08/04 08:02:05;;;;;;;4.40;1.80;;;20.90;99.90;;;;;;5081062;28;20032;-79
2023/08/04 08:04:31;;;;;;;3.53;1.73;;;20.80;99.90;;;;;;5061969;28;20219;-80
2023/08/04 08:06:57;;;;;;;3.03;1.60;;;20.70;99.90;;;;;;5047022;28;20040;-79
2023/08/04 08:09:22;;;;;;;3.08;1.73;;;20.60;99.90;;;;;;5047839;28;20262;-78
2023/08/04 08:11:48;;;;;;;2.75;1.40;;;20.30;99.90;;;;;;5064113;28;20054;-78
2023/08/04 08:14:16;;;;;;;3.85;1.70;;;20.30;99.90;;;;;;5064302;28;20029;-77
2023/08/04 08:16:42;;;;;;;3.60;1.73;;;20.40;99.90;;;;;;5064693;28;20040;-77
2023/08/04 08:19:09;;;;;;;3.53;1.60;;;20.60;99.90;;;;;;5080557;28;20040;-77
2023/08/04 08:21:35;;;;;;;4.85;1.75;;;20.30;99.90;;;;;;5074640;28;20032;-77
2023/08/04 08:24:01;;;;;;;2.65;1.80;;;20.30;99.90;;;;;;5063206;28;20428;-76
2023/08/04 08:26:27;;;;;;;2.95;1.60;;;20.60;99.90;;;;;;5064132;28;20080;-76
2023/08/04 08:28:53;;;;;;;3.90;2.03;;;20.40;99.90;;;;;;5063766;28;20039;-77
2023/08/04 08:31:18;;;;;;;3.97;1.95;;;20.40;99.90;;;;;;5080738;28;20130;-77
2023/08/04 08:33:44;;;;;;;4.18;1.90;;;20.40;99.90;;;;;;5063931;28;20050;-77
2023/08/04 08:36:10;;;;;;;5.18;1.92;;;20.60;99.90;;;;;;5064029;28;20378;-77
2023/08/04 08:38:35;;;;;;;4.05;2.20;;;20.90;99.90;;;;;;5061945;28;20209;-77
2023/08/04 08:41:02;;;;;;;5.57;2.75;;;21.10;99.90;;;;;;5062950;28;20028;-78
2023/08/04 08:43:28;;;;;;;7.25;4.05;;;21.00;99.90;;;;;;5080492;28;20064;-77
2023/08/04 08:45:55;;;;;;;5.30;2.75;;;21.10;99.90;;;;;;5046797;28;20086;-77
2023/08/04 08:48:21;;;;;;;5.75;2.65;;;21.40;99.90;;;;;;5080581;28;20093;-77
2023/08/04 08:50:56;;;;;;;4.60;2.30;;;21.20;99.90;;;;;;5046596;28;20227;-77
2023/08/04 08:53:28;;;;;;;6.00;2.40;;;21.70;99.90;;;;;;5079657;28;20028;-77
2023/08/04 08:55:54;;;;;;;4.28;2.28;;;21.70;99.90;;;;;;5078837;28;20114;-76
2023/08/04 08:58:20;;;;;;;5.82;2.22;;;21.90;99.90;;;;;;5080140;28;20044;-77
2023/08/04 09:00:47;;;;;;;5.55;2.55;;;21.80;99.90;;;;;;5063197;28;20069;-77
2023/08/04 09:03:13;;;;;;;7.18;2.42;;;21.70;99.90;;;;;;5080293;28;20029;-76
2023/08/04 09:05:38;;;;;;;4.03;2.22;;;21.70;99.90;;;;;;5063350;28;20198;-77
2023/08/04 09:08:06;;;;;;;5.80;2.33;;;21.40;99.90;;;;;;5063063;28;20036;-78
2023/08/04 09:10:34;;;;;;;6.18;2.42;;;21.80;99.90;;;;;;5075199;28;20051;-77
2023/08/04 09:13:00;;;;;;;3.83;2.40;;;21.80;99.90;;;;;;5046311;28;20103;-77
2023/08/04 09:15:34;;;;;;;5.50;2.80;;;22.00;99.90;;;;;;5079906;28;20218;-77
2023/08/04 09:18:00;;;;;;;3.50;2.20;;;22.00;99.90;;;;;;5046135;28;20404;-77
2023/08/04 09:20:28;;;;;;;5.43;2.38;;;22.10;99.90;;;;;;5062987;28;20066;-78
2023/08/04 09:22:54;;;;;;;4.40;2.28;;;22.30;99.90;;;;;;5079039;28;20382;-78
2023/08/04 09:25:20;;;;;;;3.95;1.80;;;22.70;99.90;;;;;;5062902;28;20059;-78
2023/08/04 09:27:49;;;;;;;5.78;1.77;;;22.20;99.90;;;;;;5058112;28;20048;-78
2023/08/04 09:30:16;;;;;;;4.32;1.88;;;22.10;99.90;;;;;;5043286;28;20074;-78
2023/08/04 09:32:47;;;;;;;4.55;1.50;;;22.30;99.90;;;;;;5059819;28;20318;-77
2023/08/04 09:35:13;;;;;;;4.35;1.85;;;22.50;99.90;;;;;;5059137;28;20079;-78
2023/08/04 09:37:40;;;;;;;5.03;1.55;;;22.80;99.90;;;;;;5059230;28;20100;-78
2023/08/04 09:40:21;;;;;;;5.07;1.67;;;23.00;99.90;;;;;;5058963;28;20033;-78
2023/08/04 09:42:50;;;;;;;5.70;1.90;;;23.00;99.90;;;;;;5048495;28;20096;-78
2023/08/04 09:45:18;;;;;;;7.90;2.35;;;22.70;99.90;;;;;;5045512;28;20110;-78
2023/08/04 09:47:48;;;;;;;7.85;2.50;;;21.50;99.90;;;;;;5062612;28;20067;-77
2023/08/04 09:50:17;;;;;;;4.10;2.10;;;21.40;99.90;;;;;;5062025;28;20376;-78
2023/08/04 09:52:42;;;;;;;4.75;2.10;;;21.60;99.90;;;;;;5078913;28;20042;-78
2023/08/04 09:55:08;;;;;;;5.90;2.70;;;21.90;99.90;;;;;;5062100;28;20076;-77
2023/08/04 09:57:34;;;;;;;5.38;2.30;;;22.00;99.90;;;;;;5045632;28;20079;-78
2023/08/04 10:00:00;;;;;;;5.47;2.30;;;22.20;99.90;;;;;;5074270;28;20020;-78
2023/08/04 10:02:27;;;;;;;4.95;2.35;;;22.40;99.90;;;;;;5078188;28;20081;-77
2023/08/04 10:04:54;;;;;;;9.50;2.47;;;22.40;99.90;;;;;;5062115;28;20119;-78
2023/08/04 10:07:20;;;;;;;5.03;2.35;;;21.90;99.90;;;;;;5078807;28;20273;-78
2023/08/04 10:09:47;;;;;;;7.50;2.53;;;22.10;99.90;;;;;;5062257;28;20035;-77
2023/08/04 10:12:14;;;;;;;9.00;2.70;;;23.00;99.90;;;;;;5061361;28;20046;-78
2023/08/04 10:14:41;;;;;;;6.32;2.22;;;22.80;99.90;;;;;;5062519;28;20249;-79
2023/08/04 10:17:07;;;;;;;3.63;2.05;;;22.70;99.90;;;;;;5073256;28;20024;-79
2023/08/04 10:19:34;;;;;;;7.10;1.80;;;22.60;99.90;;;;;;5078703;28;20032;-79
2023/08/04 10:22:10;;;;;;;4.45;1.85;;;22.90;99.90;;;;;;5078646;28;20036;-80
2023/08/04 10:24:37;;;;;;;3.92;1.52;;;22.80;99.90;;;;;;5062066;28;20089;-78
2023/08/04 10:27:13;;;;;;;2.25;1.38;;;23.00;99.90;;;;;;5061462;28;20073;-78
2023/08/04 10:29:40;;;;;;;4.15;2.05;;;23.10;99.90;;;;;;5078701;28;20099;-78
2023/08/04 10:32:08;;;;;;;3.08;1.50;;;23.10;99.90;;;;;;5042623;28;20038;-77
2023/08/04 10:34:42;;;;;;;3.88;1.30;;;22.80;99.90;;;;;;5058098;28;20043;-80
2023/08/04 10:37:18;;;;;;;3.85;1.50;;;22.60;99.90;;;;;;5058156;28;20045;-78
2023/08/04 10:39:46;;;;;;;2.97;1.50;;;23.10;99.90;;;;;;5041685;28;20043;-78
2023/08/04 10:42:11;;;;;;;4.50;2.15;;;23.80;99.90;;;;;;5057936;28;20043;-79
2023/08/04 10:45:03;;;;;;;2.17;1.40;;;24.10;99.90;;;;;;5041928;28;20104;-79
2023/08/04 10:47:51;;;;;;;3.80;1.50;;;24.40;99.90;;;;;;5058224;28;20033;-78
2023/08/04 10:50:17;;;;;;;3.05;1.40;;;24.30;99.90;;;;;;5059320;28;20040;-78
2023/08/04 10:52:43;;;;;;;2.92;1.70;;;24.10;99.90;;;;;;5078252;28;20040;-78
2023/08/04 10:55:13;;;;;;;2.53;1.40;;;23.90;99.90;;;;;;5060875;28;20059;-78
2023/08/04 10:57:41;;;;;;;6.35;1.95;;;24.40;99.90;;;;;;5061279;28;20052;-78
2023/08/04 11:00:09;;;;;;;3.30;1.40;;;23.80;99.90;;;;;;5078019;28;20036;-78
2023/08/04 11:02:35;;;;;;;3.28;1.38;;;23.60;99.90;;;;;;5078081;28;20242;-78
2023/08/04 11:05:03;;;;;;;3.53;1.52;;;23.40;99.90;;;;;;5074237;28;20313;-78
2023/08/04 11:07:29;;;;;;;3.40;1.40;;;23.50;99.90;;;;;;5061026;28;20033;-79
2023/08/04 11:09:55;;;;;;;3.78;1.20;;;23.50;99.90;;;;;;5077955;28;20309;-78
2023/08/04 11:12:21;;;;;;;3.45;1.40;;;23.80;99.90;;;;;;5061098;28;20307;-78
2023/08/04 11:14:49;;;;;;;3.13;1.23;;;23.90;99.90;;;;;;5078159;28;20025;-79
2023/08/04 11:17:27;;;;;;;3.58;1.58;;;24.10;99.90;;;;;;5077729;28;20270;-78
2023/08/04 11:19:56;;;;;;;1.85;1.55;;;24.10;99.90;;;;;;5046225;28;20060;-80
2023/08/04 11:22:25;;;;;;;2.88;1.25;;;24.30;99.90;;;;;;5054821;28;20037;-78
2023/08/04 11:24:52;;;;;;;3.58;1.50;;;24.50;99.90;;;;;;5027936;28;20342;-79
2023/08/04 11:27:19;;;;;;;2.80;1.17;;;24.80;99.90;;;;;;5061877;28;20047;-78
2023/08/04 11:29:44;;;;;;;1.92;1.25;;;25.00;99.90;;;;;;5045088;28;20025;-78
2023/08/04 11:32:21;;;;;;;3.00;1.27;;;24.90;99.90;;;;;;5061476;28;20036;-78
2023/08/04 11:34:47;;;;;;;2.53;1.15;;;24.80;99.90;;;;;;5045033;28;20036;-79
2023/08/04 11:37:14;;;;;;;3.70;1.58;;;25.00;99.90;;;;;;5044702;28;20036;-79
2023/08/04 11:39:42;;;;;;;3.67;1.30;;;24.90;99.90;;;;;;5061564;28;20125;-77
2023/08/04 11:42:12;;;;;;;4.10;1.60;;;25.40;99.90;;;;;;5080864;28;20196;-77
2023/08/04 11:44:42;;;;;;;4.13;1.50;;;25.60;99.90;;;;;;5081510;28;20302;-76
2023/08/04 11:47:10;;;;;;;4.85;1.67;;;25.60;99.90;;;;;;5081063;28;20044;-75
2023/08/04 11:49:37;;;;;;;3.00;1.60;;;24.90;99.90;;;;;;5081610;28;20039;-77
2023/08/04 11:52:11;;;;;;;3.17;1.42;;;24.40;99.90;;;;;;5064604;28;20032;-76
2023/08/04 11:54:54;;;;;;;4.53;1.65;;;24.10;99.90;;;;;;5064789;28;20238;-78
2023/08/04 11:57:20;;;;;;;1.70;1.48;;;23.80;99.90;;;;;;5085263;28;20040;-76
2023/08/04 11:59:47;;;;;;;3.60;1.52;;;23.50;99.90;;;;;;5104775;28;20031;-76
2023/08/04 12:02:13;;;;;;;2.50;1.40;;;23.40;99.90;;;;;;5104239;28;20104;-76
2023/08/04 12:04:39;;;;;;;3.30;1.55;;;23.40;99.90;;;;;;5104959;28;20027;-76
2023/08/04 12:07:05;;;;;;;4.15;1.55;;;23.30;99.90;;;;;;5070389;28;20091;-77
2023/08/04 12:09:32;;;;;;;4.28;1.63;;;23.30;99.90;;;;;;5087895;28;20278;-76
2023/08/04 12:11:58;;;;;;;6.05;1.92;;;23.40;99.90;;;;;;5087778;28;20039;-77
2023/08/04 12:14:24;;;;;;;3.38;1.45;;;23.50;99.90;;;;;;5054068;28;20050;-77
2023/08/04 12:16:52;;;;;;;5.65;1.70;;;23.60;99.90;;;;;;5098197;28;20336;-77
2023/08/04 12:19:22;;;;;;;6.07;1.90;;;23.80;99.90;;;;;;5070927;28;20124;-76
2023/08/04 12:21:57;;;;;;;4.20;1.95;;;23.60;99.90;;;;;;5087496;28;20027;-76
2023/08/04 12:24:23;;;;;;;4.07;1.98;;;23.30;99.90;;;;;;5087096;28;20042;-76
2023/08/04 12:26:49;;;;;;;3.33;1.80;;;23.50;99.90;;;;;;5070746;28;20184;-78
2023/08/04 12:29:14;;;;;;;3.65;1.60;;;23.80;99.90;;;;;;5103725;28;20109;-76
2023/08/04 12:31:40;;;;;;;1.90;1.40;;;23.70;99.90;;;;;;5087365;28;20100;-79
2023/08/04 12:34:08;;;;;;;2.15;1.30;;;24.20;99.90;;;;;;5047716;28;20024;-77
2023/08/04 12:36:34;;;;;;;2.30;1.58;;;24.30;99.90;;;;;;5067006;28;20040;-79
2023/08/04 12:39:00;;;;;;;3.15;1.30;;;24.90;99.90;;;;;;5049518;28;20032;-77
2023/08/04 12:41:26;;;;;;;3.65;1.35;;;24.70;99.90;;;;;;5101571;28;20332;-77
2023/08/04 12:43:51;;;;;;;2.10;1.42;;;24.80;99.90;;;;;;5086418;28;20090;-78
2023/08/04 12:46:17;;;;;;;3.30;1.52;;;24.80;99.90;;;;;;5090768;28;20040;-78